createdAt,value
2023-02-03T00:13:18.066Z,87.75
2023-02-03T00:28:43.917Z,88.35
2023-02-03T00:44:10.284Z,90.44
2023-02-03T00:59:36.431Z,91.06
2023-02-03T01:15:02.681Z,90.71
2023-02-03T01:30:12.571Z,90.71
2023-02-03T01:45:21.400Z,90.41
2023-02-03T02:00:47.558Z,90.22
2023-02-03T02:16:14.021Z,90.98
2023-02-03T02:31:43.757Z,91.26
2023-02-03T02:47:12.236Z,91.61
2023-02-03T03:02:22.086Z,91.27
2023-02-03T03:17:50.002Z,90.99
2023-02-03T03:33:15.927Z,90.83
2023-02-03T03:48:48.272Z,91.40
2023-02-03T04:04:14.759Z,92.12
2023-02-03T04:19:24.453Z,92.62
2023-02-03T04:34:50.754Z,92.47
2023-02-03T04:50:17.087Z,91.61
2023-02-03T05:05:43.188Z,91.41
2023-02-03T05:21:09.708Z,91.51
2023-02-03T05:36:18.228Z,92.00
2023-02-03T05:51:57.082Z,91.50
2023-02-03T06:07:23.309Z,92.12
2023-02-03T06:22:49.485Z,94.74
2023-02-03T06:38:15.896Z,97.81
2023-02-03T06:53:41.946Z,98.79
2023-02-03T07:09:08.642Z,99.13
2023-02-03T07:24:17.836Z,99.56
2023-02-03T07:39:26.937Z,99.71
2023-02-03T07:54:53.003Z,99.84
2023-02-03T08:10:19.863Z,99.70
2023-02-03T08:25:46.562Z,99.96
2023-02-03T08:41:12.887Z,99.93
2023-02-03T08:56:39.205Z,100.00
2023-02-03T09:12:05.804Z,100.00
2023-02-03T09:27:32.549Z,100.00
2023-02-03T09:43:00.951Z,100.00
2023-02-03T09:58:27.093Z,100.00
2023-02-03T10:13:58.937Z,100.00
2023-02-03T10:29:29.230Z,100.00
2023-02-03T10:44:58.431Z,100.00
2023-02-03T11:00:25.947Z,100.00
2023-02-03T11:15:55.599Z,100.00
2023-02-03T11:31:22.957Z,100.00
2023-02-03T11:46:49.776Z,100.00
2023-02-03T12:02:36.817Z,99.80
2023-02-03T12:18:06.709Z,99.60
2023-02-03T12:33:34.324Z,99.31
2023-02-03T12:49:01.835Z,99.28
2023-02-03T13:22:28.180Z,94.26
2023-02-03T13:37:45.618Z,92.47
2023-02-03T13:52:58.111Z,92.28
2023-02-03T14:08:20.279Z,92.12
2023-02-03T14:23:31.212Z,91.79
2023-02-03T14:38:40.480Z,91.73
2023-02-03T14:54:06.241Z,91.59
2023-02-03T15:28:28.979Z,90.27
2023-02-03T15:43:58.677Z,92.48
2023-02-03T15:59:28.237Z,92.39
2023-02-03T16:14:57.453Z,93.31
2023-02-03T16:30:45.323Z,94.18
2023-02-03T16:46:31.851Z,94.89
2023-02-03T17:02:02.453Z,94.85
2023-02-03T17:17:32.187Z,93.97
2023-02-03T17:32:41.959Z,92.14
2023-02-03T18:03:57.710Z,90.24
2023-02-03T18:19:26.710Z,90.01
2023-02-03T18:34:55.606Z,90.37
2023-02-03T18:50:26.187Z,91.11
2023-02-03T19:05:55.994Z,93.16
2023-02-03T19:21:25.329Z,95.63
2023-02-03T19:36:54.981Z,96.53
2023-02-03T19:52:24.223Z,97.36
2023-02-03T20:07:56.477Z,97.73
2023-02-03T20:23:26.337Z,97.75
2023-02-03T20:38:55.982Z,98.19
2023-02-03T20:54:26.621Z,98.51
2023-02-03T21:09:57.013Z,98.23
2023-02-03T21:25:29.704Z,98.54
2023-02-03T21:41:10.425Z,98.36
2023-02-03T21:56:41.028Z,98.49
2023-02-03T22:12:10.446Z,98.59
2023-02-03T22:27:39.160Z,98.95
2023-02-03T22:43:08.755Z,99.06
2023-02-03T22:58:37.591Z,99.48
2023-02-03T23:14:06.841Z,99.54
2023-02-03T23:29:38.220Z,98.14
2023-02-03T23:45:59.653Z,93.89
